Terminal Aerodrome Forecast
Issued by NWS Dodge City, KS

Home | Current Version | Previous Version | Text Only | Print | Product List | Glossary On
Versions: 1 2 3 4 5 6 7 8 9 10 11 12 13 14 15 16 17 18 19
000
FTUS43 KDDC 190520
TAFDDC
TAF
KDDC 190520Z 1906/2006 17011KT P6SM FEW250 WS020/20040KT
     FM191200 17013KT P6SM FEW200
     FM191700 20023G33KT P6SM SKC
     FM200200 19015KT P6SM SKC WS020/22050KT=

USA.gov is the U.S. government's official web portal to all federal, state and local government web resources and services.